Data for 04/20/2005

Time Sea-Level Adjusted Pressure Absolute Pressure Temperature Relative Humidity Dew Point   
(mb) (inHg) (mb) (inHg) (C) (F) (%) (C) (F)
00:05 1017 30.03 847 25.01 1.3 34.3 85 -1 30.2
00:10 1017 30.03 847 25.01 1.4 34.6 83 -1.1 30.1
00:15 1017 30.03 847 25.01 1.5 34.7 83 -1.1 30.1
00:20 1017 30.03 846 24.98 1.5 34.8 83 -1.1 30.1
00:25 1017 30.03 846 24.98 1.5 34.7 84 -0.9 30.4
00:30 1017 30.03 846 24.98 1.3 34.3 86 -0.8 30.5
00:35 1017 30.03 846 24.98 1.2 34.2 86 -0.9 30.4
00:40 1017 30.03 846 24.98 1.2 34.2 86 -0.8 30.5
00:45 1017 30.03 846 24.98 1.2 34.1 87 -0.8 30.6
00:50 1017 30.03 846 24.98 1 33.8 88 -0.7 30.8
00:55 1017 30.03 846 24.98 0.9 33.6 89 -0.7 30.7
01:00 1017 30.03 846 24.98 0.9 33.6 88 -0.8 30.5
01:05 1017 30.03 846 24.98 0.9 33.7 88 -0.8 30.6
01:10 1017 30.03 846 24.98 0.8 33.5 89 -0.8 30.6
01:15 1017 30.03 846 24.98 0.8 33.4 89 -0.9 30.4
01:20 1017 30.03 846 24.98 0.8 33.4 88 -1 30.3
01:25 1017 30.03 846 24.98 0.8 33.4 88 -1 30.3
01:30 1017 30.03 846 24.98 0.8 33.4 88 -1 30.2
01:35 1017 30.03 846 24.98 0.8 33.5 87 -1.1 30
01:40 1017 30.03 846 24.98 1 33.8 85 -1.2 29.8
01:45 1017 30.03 846 24.98 1.1 34 86 -1 30.2
01:50 1016 30 846 24.98 0.9 33.7 88 -0.9 30.4
01:55 1016 30 846 24.98 0.8 33.4 89 -0.8 30.6
02:00 1016 30 846 24.98 0.7 33.2 89 -1 30.2
02:05 1016 30 846 24.98 0.8 33.4 86 -1.3 29.7
02:10 1016 30 845 24.95 0.9 33.6 85 -1.3 29.7
02:15 1016 30 846 24.98 0.9 33.6 85 -1.3 29.7
02:20 1016 30 845 24.95 0.9 33.7 85 -1.3 29.6
02:25 1016 30 845 24.95 0.9 33.7 85 -1.3 29.6
02:30 1016 30 845 24.95 1 33.8 85 -1.3 29.7
02:35 1016 30 845 24.95 1 33.9 84 -1.4 29.5
02:40 1016 30 845 24.95 1.1 34 85 -1.1 29.9
02:45 1016 30 845 24.95 1.2 34.1 82 -1.5 29.3
02:50 1016 30 845 24.95 1.3 34.3 82 -1.4 29.5
02:55 1016 30 846 24.98 1.3 34.3 83 -1.3 29.7
03:00 1016 30 846 24.98 1.2 34.1 84 -1.3 29.7
03:05 1016 30 846 24.98 1.1 33.9 83 -1.4 29.4
03:10 1016 30 846 24.98 1 33.8 85 -1.3 29.7
03:15 1016 30 846 24.98 0.9 33.5 86 -1.2 29.8
03:20 1016 30 846 24.98 0.8 33.4 87 -1.2 29.8
03:25 1016 30 846 24.98 0.8 33.5 87 -1.1 30
03:30 1016 30 846 24.98 0.7 33.2 88 -1.1 30.1
03:35 1016 30 845 24.95 0.6 33.1 89 -1 30.2
03:40 1016 30 845 24.95 0.5 33 89 -1 30.1
03:45 1016 30 845 24.95 0.6 33.1 87 -1.2 29.8
03:50 1016 30 845 24.95 0.8 33.4 85 -1.4 29.5
03:55 1015 29.97 845 24.95 1 33.8 84 -1.4 29.5
04:00 1015 29.97 845 24.95 1 33.9 84 -1.4 29.4
04:05 1015 29.97 845 24.95 1.1 34 84 -1.3 29.6
04:10 1015 29.97 844 24.92 1.1 33.9 83 -1.4 29.4
04:15 1015 29.97 844 24.92 1.1 33.9 82 -1.6 29.1
04:20 1015 29.97 844 24.92 1.1 34 82 -1.6 29.1
04:25 1015 29.97 844 24.92 1.2 34.1 81 -1.7 29
04:30 1015 29.97 844 24.92 1.2 34.2 81 -1.6 29.1
04:35 1015 29.97 844 24.92 1.1 34 81 -1.7 28.9
04:40 1015 29.97 844 24.92 1.2 34.1 80 -1.9 28.6
04:45 1015 29.97 844 24.92 1.1 34 81 -1.8 28.7
04:50 1015 29.97 844 24.92 1.1 34 81 -1.9 28.6
04:55 1015 29.97 845 24.95 1.1 34.1 80 -1.9 28.5
05:00 1015 29.97 845 24.95 1.2 34.1 80 -2 28.5
05:05 1015 29.97 845 24.95 1 33.9 81 -1.9 28.6
05:10 1016 30 845 24.95 1 33.8 81 -1.9 28.5
05:15 1015 29.97 845 24.95 1 33.7 82 -1.8 28.7
05:20 1015 29.97 845 24.95 0.9 33.7 82 -1.9 28.6
05:25 1015 29.97 845 24.95 0.9 33.6 81 -2 28.5
05:30 1015 29.97 844 24.92 1 33.7 82 -1.8 28.7
05:35 1015 29.97 844 24.92 0.9 33.6 82 -1.8 28.7
05:40 1015 29.97 844 24.92 0.8 33.5 81 -2 28.4
05:45 1015 29.97 844 24.92 1 33.7 80 -2.1 28.2
05:50 1015 29.97 844 24.92 1 33.9 80 -2 28.4
05:55 1015 29.97 844 24.92 1 33.8 80 -2.1 28.3
06:00 1015 29.97 844 24.92 1.1 33.9 79 -2.2 28.1
06:05 1015 29.97 844 24.92 1.1 34 79 -2.2 28.1
06:10 1015 29.97 845 24.95 1.2 34.2 78 -2.2 28.1
06:15 1015 29.97 844 24.92 1.2 34.2 78 -2.3 27.9
06:20 1015 29.97 845 24.95 1.3 34.4 77 -2.3 27.9
06:25 1015 29.97 845 24.95 1.2 34.1 80 -1.9 28.5
06:30 1015 29.97 845 24.95 0.9 33.6 81 -2 28.4
06:35 1016 30 845 24.95 0.8 33.4 82 -2 28.4
06:40 1016 30 845 24.95 0.7 33.2 82 -2.1 28.2
06:45 1015 29.97 845 24.95 0.5 32.9 82 -2.2 28.1
06:50 1015 29.97 845 24.95 0.6 33 80 -2.5 27.6
06:55 1015 29.97 845 24.95 0.7 33.3 79 -2.5 27.6
07:00 1015 29.97 845 24.95 0.7 33.2 79 -2.5 27.5
07:05 1016 30 845 24.95 0.8 33.4 78 -2.6 27.4
07:10 1016 30 845 24.95 0.8 33.5 79 -2.5 27.5
07:15 1016 30 845 24.95 0.8 33.4 79 -2.5 27.5
07:20 1016 30 845 24.95 0.7 33.2 79 -2.5 27.5
07:25 1016 30 845 24.95 0.5 33 80 -2.4 27.6
07:30 1016 30 845 24.95 0.4 32.7 82 -2.3 27.8
07:35 1015 29.97 845 24.95 0.2 32.4 82 -2.5 27.5
07:40 1015 29.97 845 24.95 0.2 32.3 82 -2.6 27.4
07:45 1015 29.97 845 24.95 0.2 32.4 81 -2.6 27.4
07:50 1015 29.97 845 24.95 0.2 32.4 82 -2.6 27.4
07:55 1015 29.97 845 24.95 0.3 32.6 80 -2.8 27
08:00 1015 29.97 845 24.95 0.4 32.7 81 -2.6 27.4
08:05 1015 29.97 844 24.92 0.3 32.5 81 -2.5 27.4
08:10 1015 29.97 844 24.92 0.3 32.5 80 -2.8 27
08:15 1016 30 845 24.95 0.5 32.8 80 -2.6 27.4
08:20 1016 30 845 24.95 0.5 32.9 80 -2.6 27.3
08:25 1016 30 845 24.95 0.5 32.9 80 -2.5 27.5
08:30 1016 30 845 24.95 0.6 33 80 -2.4 27.6
08:35 1016 30 845 24.95 0.7 33.2 79 -2.6 27.3
08:40 1016 30 845 24.95 0.7 33.3 79 -2.4 27.6
08:45 1016 30 845 24.95 0.6 33 81 -2.3 27.8
08:50 1016 30 845 24.95 0.5 32.8 82 -2.3 27.8
08:55 1016 30 845 24.95 0.5 32.8 81 -2.5 27.5
09:00 1016 30 845 24.95 0.5 32.9 81 -2.4 27.6
09:05 1016 30 845 24.95 0.4 32.8 82 -2.4 27.7
09:10 1016 30 845 24.95 0.5 32.9 81 -2.4 27.6
09:15 1016 30 845 24.95 0.6 33 80 -2.5 27.5
09:20 1016 30 845 24.95 0.5 33 81 -2.4 27.6
09:25 1016 30 845 24.95 0.6 33 80 -2.5 27.5
09:30 1016 30 845 24.95 0.5 33 80 -2.5 27.6
09:35 1016 30 845 24.95 0.6 33 81 -2.4 27.7
09:40 1016 30 845 24.95 0.5 32.8 80 -2.5 27.4
09:45 1016 30 845 24.95 0.5 32.9 80 -2.6 27.2
09:50 1016 30 845 24.95 0.5 32.9 80 -2.5 27.5
09:55 1016 30 845 24.95 0.5 33 79 -2.7 27.1
10:00 1016 30 845 24.95 0.8 33.4 77 -2.8 27
10:05 1016 30 846 24.98 1.1 34 76 -2.7 27.1
10:10 1016 30 846 24.98 1.2 34.1 76 -2.6 27.3
10:15 1016 30 846 24.98 1.4 34.6 75 -2.5 27.4
10:20 1017 30.03 846 24.98 1.5 34.8 74 -2.6 27.3
10:25 1017 30.03 846 24.98 1.6 34.8 73 -2.7 27.1
10:30 1016 30 846 24.98 1.9 35.5 72 -2.5 27.5
10:35 1017 30.03 846 24.98 1.7 35 75 -2.3 27.9
10:40 1017 30.03 846 24.98 1.5 34.6 75 -2.4 27.6
10:45 1017 30.03 846 24.98 1.4 34.5 76 -2.4 27.7
10:50 1017 30.03 846 24.98 1.2 34.2 76 -2.5 27.5
10:55 1017 30.03 846 24.98 1.3 34.3 75 -2.7 27.2
11:00 1017 30.03 846 24.98 1.5 34.7 75 -2.4 27.7
11:05 1017 30.03 846 24.98 1.7 35.1 73 -2.7 27.2
11:10 1017 30.03 846 24.98 1.6 34.9 74 -2.5 27.5
11:15 1016 30 846 24.98 1.7 35 75 -2.3 27.8
11:20 1016 30 845 24.95 1.7 35 74 -2.6 27.4
11:25 1016 30 845 24.95 1.5 34.7 74 -2.6 27.3
11:30 1016 30 845 24.95 1.6 34.9 74 -2.4 27.6
11:35 1016 30 845 24.95 1.6 34.9 75 -2.4 27.8
11:40 1016 30 846 24.98 1.7 35 74 -2.5 27.5
11:45 1016 30 845 24.95 1.8 35.2 74 -2.3 27.8
11:50 1016 30 845 24.95 1.8 35.2 73 -2.5 27.5
11:55 1016 30 846 24.98 1.7 35.1 74 -2.4 27.8
12:00 1017 30.03 846 24.98 1.7 35.1 73 -2.6 27.3
12:05 1017 30.03 846 24.98 1.7 35.1 73 -2.6 27.4
12:10 1017 30.03 846 24.98 1.6 34.9 74 -2.5 27.5
12:15 1017 30.03 846 24.98 1.6 35 74 -2.4 27.6
12:20 1017 30.03 846 24.98 1.5 34.6 76 -2.3 27.8
12:25 1017 30.03 846 24.98 1.6 34.9 75 -2.4 27.7
12:30 1017 30.03 846 24.98 1.7 35 74 -2.4 27.7
12:35 1017 30.03 846 24.98 1.7 35 74 -2.4 27.6
12:40 1017 30.03 846 24.98 1.6 34.9 75 -2.3 27.8
12:45 1017 30.03 846 24.98 1.7 35.1 74 -2.5 27.5
12:50 1017 30.03 846 24.98 1.6 34.8 77 -2 28.4
12:55 1017 30.03 846 24.98 1.5 34.6 77 -2.1 28.2
13:00 1017 30.03 846 24.98 1.6 34.8 77 -2 28.4
13:05 1017 30.03 846 24.98 1.6 34.8 78 -1.9 28.5
13:10 1017 30.03 846 24.98 1.7 35 76 -2.1 28.2
13:15 1016 30 846 24.98 1.7 35 77 -2 28.5
13:20 1017 30.03 846 24.98 1.7 35.1 76 -2.1 28.3
13:25 1017 30.03 846 24.98 1.6 34.8 78 -1.9 28.5
13:30 1017 30.03 846 24.98 1.6 34.9 77 -2 28.3
13:35 1017 30.03 846 24.98 1.8 35.3 75 -2.1 28.3
13:40 1017 30.03 846 24.98 1.9 35.4 75 -2.1 28.2
13:45 1017 30.03 846 24.98 1.7 35 77 -2 28.4
13:50 1017 30.03 846 24.98 1.8 35.3 75 -2.2 28.1
13:55 1017 30.03 846 24.98 1.9 35.4 74 -2.2 28.1
14:00 1017 30.03 846 24.98 1.9 35.4 75 -2.1 28.2
14:05 1017 30.03 846 24.98 1.9 35.5 74 -2.1 28.1
14:10 1017 30.03 846 24.98 1.9 35.5 74 -2.3 27.9
14:15 1017 30.03 846 24.98 2 35.5 75 -2 28.5
14:20 1017 30.03 846 24.98 2 35.7 75 -1.9 28.6
14:25 1017 30.03 846 24.98 1.9 35.4 75 -2.1 28.2
14:30 1017 30.03 846 24.98 1.8 35.2 76 -2 28.5
14:35 1017 30.03 846 24.98 1.9 35.5 76 -1.9 28.5
14:40 1017 30.03 846 24.98 1.9 35.5 76 -1.9 28.5
14:45 1017 30.03 846 24.98 2.4 36.3 71 -2.4 27.7
14:50 1017 30.03 846 24.98 2.9 37.2 69 -2.3 27.9
14:55 1017 30.03 846 24.98 2.6 36.7 71 -2.1 28.1
15:00 1017 30.03 846 24.98 2.5 36.5 72 -2 28.4
15:05 1017 30.03 846 24.98 2.2 36 75 -1.8 28.8
15:10 1017 30.03 846 24.98 2.2 36 73 -2.1 28.2
15:15 1017 30.03 846 24.98 2.1 35.8 73 -2.2 28.1
15:20 1017 30.03 846 24.98 1.8 35.3 75 -2 28.3
15:25 1017 30.03 846 24.98 2.3 36.1 74 -1.9 28.6
15:30 1017 30.03 846 24.98 2.8 37 73 -1.5 29.2
15:35 1017 30.03 846 24.98 2.8 37.1 72 -1.7 28.9
15:40 1017 30.03 846 24.98 2.5 36.5 74 -1.7 28.9
15:45 1017 30.03 846 24.98 2.6 36.6 73 -1.7 28.9
15:50 1017 30.03 846 24.98 2.6 36.8 74 -1.5 29.3
15:55 1017 30.03 846 24.98 2.3 36.1 75 -1.8 28.8
16:00 1017 30.03 846 24.98 2.2 35.9 75 -1.9 28.7
16:05 1017 30.03 847 25.01 2 35.7 76 -1.8 28.8
16:10 1017 30.03 847 25.01 2.1 35.8 75 -1.9 28.6
16:15 1017 30.03 847 25.01 2.1 35.9 75 -1.8 28.7
16:20 1018 30.06 847 25.01 1.8 35.3 76 -1.9 28.6
16:25 1018 30.06 847 25.01 1.6 35 77 -2 28.5
16:30 1018 30.06 847 25.01 1.6 34.9 77 -2 28.3
16:35 1018 30.06 847 25.01 1.5 34.7 78 -1.9 28.5
16:40 1018 30.06 847 25.01 1.5 34.6 78 -1.9 28.6
16:45 1018 30.06 847 25.01 1.5 34.8 79 -1.7 28.9
16:50 1018 30.06 847 25.01 1.8 35.3 77 -1.8 28.7
16:55 1018 30.06 847 25.01 2 35.6 76 -1.8 28.8
17:00 1018 30.06 847 25.01 2.2 36 75 -1.7 28.9
17:05 1018 30.06 847 25.01 2.4 36.3 75 -1.5 29.2
17:10 1018 30.06 847 25.01 2.6 36.6 75 -1.4 29.4
17:15 1018 30.06 847 25.01 2.2 36 77 -1.4 29.4
17:20 1018 30.06 847 25.01 1.8 35.2 78 -1.7 29
17:25 1018 30.06 847 25.01 1.6 34.9 78 -1.9 28.6
17:30 1018 30.06 847 25.01 1.5 34.6 79 -1.8 28.7
17:35 1018 30.06 848 25.04 1.6 34.9 78 -1.9 28.6
17:40 1018 30.06 848 25.04 1.6 34.9 78 -1.8 28.8
17:45 1019 30.09 848 25.04 1.5 34.8 79 -1.8 28.8
17:50 1018 30.06 848 25.04 1.7 35.1 78 -1.7 29
17:55 1019 30.09 848 25.04 1.5 34.7 79 -1.7 28.9
18:00 1019 30.09 848 25.04 1.3 34.4 79 -1.9 28.6
18:05 1019 30.09 848 25.04 1.2 34.1 80 -1.9 28.6
18:10 1019 30.09 848 25.04 1 33.9 80 -2 28.5
18:15 1019 30.09 848 25.04 1.1 34 80 -1.9 28.5
18:20 1019 30.09 848 25.04 1 33.8 82 -1.8 28.8
18:25 1019 30.09 848 25.04 0.8 33.5 83 -1.8 28.8
18:30 1018 30.06 848 25.04 0.8 33.4 83 -1.8 28.7
18:35 1019 30.09 848 25.04 0.8 33.4 85 -1.5 29.3
18:40 1019 30.09 848 25.04 0.7 33.3 85 -1.5 29.2
18:45 1019 30.09 848 25.04 0.7 33.2 84 -1.7 29
18:50 1019 30.09 848 25.04 0.6 33 83 -1.9 28.5
18:55 1019 30.09 848 25.04 0.6 33.1 83 -2 28.4
19:00 1019 30.09 848 25.04 0.7 33.2 82 -2 28.4
19:05 1019 30.09 848 25.04 0.6 33.1 82 -2.1 28.2
19:10 1019 30.09 848 25.04 0.6 33.2 82 -2 28.4
19:15 1019 30.09 848 25.04 0.6 33.1 83 -2 28.5
19:20 1019 30.09 848 25.04 0.6 33.1 82 -2.1 28.3
19:25 1019 30.09 848 25.04 0.6 33.1 82 -2.1 28.2
19:30 1019 30.09 848 25.04 0.6 33.1 82 -2.1 28.2
19:35 1019 30.09 848 25.04 0.7 33.2 82 -2 28.3
19:40 1019 30.09 848 25.04 0.7 33.2 82 -2.1 28.2
19:45 1019 30.09 848 25.04 0.6 33.1 82 -2.1 28.3
19:50 1019 30.09 848 25.04 0.5 33 83 -2.1 28.3
19:55 1019 30.09 848 25.04 0.4 32.8 84 -2 28.3
20:00 1019 30.09 849 25.07 0.4 32.7 84 -2 28.5
20:05 1019 30.09 849 25.07 0.3 32.6 85 -1.9 28.5
20:10 1020 30.12 849 25.07 0.3 32.6 85 -1.9 28.7
20:15 1020 30.12 849 25.07 0.3 32.5 85 -1.9 28.5
20:20 1020 30.12 849 25.07 0.2 32.4 86 -1.9 28.6
20:25 1020 30.12 849 25.07 0.1 32.2 86 -1.9 28.6
20:30 1020 30.12 849 25.07 0.1 32.2 87 -1.9 28.7
20:35 1020 30.12 849 25.07 0.1 32.2 86 -1.9 28.6
20:40 1020 30.12 849 25.07 0.1 32.2 86 -1.9 28.5
20:45 1020 30.12 849 25.07 0.1 32.2 86 -2 28.5
20:50 1020 30.12 849 25.07 0.1 32.2 87 -1.9 28.7
20:55 1020 30.12 849 25.07 0.1 32.1 87 -1.9 28.6
21:00 1020 30.12 849 25.07 0 32 87 -1.9 28.6
21:05 1020 30.12 849 25.07 0 32 87 -1.9 28.5
21:10 1020 30.12 849 25.07 0 32.1 86 -2 28.3
21:15 1020 30.12 849 25.07 0.1 32.1 87 -1.9 28.5
21:20 1020 30.12 849 25.07 0 32 87 -2 28.4
21:25 1020 30.12 849 25.07 0 32 87 -2 28.4
21:30 1020 30.12 849 25.07 0.1 32.1 86 -2 28.4
21:35 1020 30.12 849 25.07 0 32.1 86 -2 28.4
21:40 1020 30.12 849 25.07 0.1 32.1 86 -1.9 28.5
21:45 1020 30.12 850 25.1 0.1 32.1 86 -1.9 28.5
21:50 1020 30.12 850 25.1 0.1 32.2 86 -1.9 28.6
21:55 1020 30.12 850 25.1 0.1 32.1 87 -1.9 28.7
22:00 1020 30.12 850 25.1 0 32.1 87 -1.9 28.6
22:05 1020 30.12 850 25.1 0 32.1 87 -1.8 28.7
22:10 1020 30.12 850 25.1 -0 31.9 87 -2 28.5
22:15 1021 30.15 850 25.1 0 32 87 -1.9 28.6
22:20 1021 30.15 850 25.1 0 32 88 -1.8 28.7
22:25 1021 30.15 850 25.1 0.1 32.1 87 -1.8 28.7
22:30 1021 30.15 850 25.1 0.2 32.3 86 -1.9 28.5
22:35 1021 30.15 850 25.1 0.2 32.4 86 -1.9 28.5
22:40 1021 30.15 850 25.1 0.2 32.4 86 -1.8 28.7
22:45 1021 30.15 850 25.1 0.2 32.4 87 -1.7 29
22:50 1021 30.15 850 25.1 0.2 32.3 87 -1.7 28.9
22:55 1021 30.15 850 25.1 0.2 32.3 88 -1.6 29.1
23:00 1021 30.15 850 25.1 0.1 32.3 88 -1.6 29.1
23:05 1021 30.15 850 25.1 0.1 32.1 89 -1.6 29.1
23:10 1021 30.15 850 25.1 0.1 32.2 88 -1.6 29.1
23:15 1021 30.15 850 25.1 0.1 32.2 89 -1.5 29.3
23:20 1021 30.15 850 25.1 0.1 32.2 89 -1.6 29.2
23:25 1021 30.15 850 25.1 -0 32 90 -1.5 29.2
23:30 1021 30.15 851 25.13 -0.1 31.9 90 -1.5 29.3
23:35 1021 30.15 850 25.1 -0.1 31.8 90 -1.5 29.3
23:40 1021 30.15 851 25.13 -0.1 31.8 91 -1.4 29.4
23:45 1021 30.15 851 25.13 -0.1 31.8 91 -1.4 29.4
23:50 1021 30.15 851 25.13 -0.1 31.7 91 -1.4 29.5
23:55 1022 30.18 851 25.13 -0.2 31.6 92 -1.4 29.5
24:00 1022 30.18 851 25.13 -0.2 31.7 92 -1.3 29.7